sensor_id;sensor_type;location;lat;lon;timestamp;P1;durP1;ratioP1;P2;durP2;ratioP2
46158;SDS011;31888;44.512;26.104;2023-01-15T00:00:15;82.97;;;25.25;;
46158;SDS011;31888;44.512;26.104;2023-01-15T00:02:40;87.10;;;25.63;;
46158;SDS011;31888;44.512;26.104;2023-01-15T00:05:05;89.13;;;28.45;;
46158;SDS011;31888;44.512;26.104;2023-01-15T00:07:30;83.03;;;26.20;;
46158;SDS011;31888;44.512;26.104;2023-01-15T00:09:55;96.20;;;27.60;;
46158;SDS011;31888;44.512;26.104;2023-01-15T00:12:19;90.75;;;27.40;;
46158;SDS011;31888;44.512;26.104;2023-01-15T00:14:44;87.75;;;27.17;;
46158;SDS011;31888;44.512;26.104;2023-01-15T00:17:10;81.40;;;26.77;;
46158;SDS011;31888;44.512;26.104;2023-01-15T00:19:35;78.05;;;25.38;;
46158;SDS011;31888;44.512;26.104;2023-01-15T00:22:00;92.65;;;29.40;;
46158;SDS011;31888;44.512;26.104;2023-01-15T00:24:25;93.47;;;27.92;;
46158;SDS011;31888;44.512;26.104;2023-01-15T00:27:07;82.88;;;24.33;;
46158;SDS011;31888;44.512;26.104;2023-01-15T00:29:50;84.95;;;24.63;;
46158;SDS011;31888;44.512;26.104;2023-01-15T00:32:16;78.38;;;25.60;;
46158;SDS011;31888;44.512;26.104;2023-01-15T00:34:41;86.25;;;26.33;;
46158;SDS011;31888;44.512;26.104;2023-01-15T00:37:05;88.10;;;26.25;;
46158;SDS011;31888;44.512;26.104;2023-01-15T00:39:30;91.60;;;27.00;;
46158;SDS011;31888;44.512;26.104;2023-01-15T00:41:55;83.72;;;25.67;;
46158;SDS011;31888;44.512;26.104;2023-01-15T00:44:19;81.53;;;26.45;;
46158;SDS011;31888;44.512;26.104;2023-01-15T00:46:46;91.75;;;26.17;;
46158;SDS011;31888;44.512;26.104;2023-01-15T00:49:12;93.22;;;28.40;;
46158;SDS011;31888;44.512;26.104;2023-01-15T00:51:37;92.75;;;27.48;;
46158;SDS011;31888;44.512;26.104;2023-01-15T00:54:02;84.05;;;26.77;;
46158;SDS011;31888;44.512;26.104;2023-01-15T00:56:27;101.68;;;28.75;;
46158;SDS011;31888;44.512;26.104;2023-01-15T00:58:51;97.05;;;27.10;;
46158;SDS011;31888;44.512;26.104;2023-01-15T01:01:16;86.18;;;26.85;;
46158;SDS011;31888;44.512;26.104;2023-01-15T01:03:41;82.05;;;26.42;;
46158;SDS011;31888;44.512;26.104;2023-01-15T01:06:11;92.20;;;27.08;;
46158;SDS011;31888;44.512;26.104;2023-01-15T01:08:36;89.97;;;27.67;;
46158;SDS011;31888;44.512;26.104;2023-01-15T01:11:01;92.80;;;29.20;;
46158;SDS011;31888;44.512;26.104;2023-01-15T01:13:27;95.15;;;28.50;;
46158;SDS011;31888;44.512;26.104;2023-01-15T01:15:52;85.50;;;25.38;;
46158;SDS011;31888;44.512;26.104;2023-01-15T01:18:16;100.78;;;28.65;;
46158;SDS011;31888;44.512;26.104;2023-01-15T01:20:41;97.07;;;27.35;;
46158;SDS011;31888;44.512;26.104;2023-01-15T01:23:07;94.20;;;27.13;;
46158;SDS011;31888;44.512;26.104;2023-01-15T01:25:32;89.60;;;26.40;;
46158;SDS011;31888;44.512;26.104;2023-01-15T01:27:56;92.90;;;26.13;;
46158;SDS011;31888;44.512;26.104;2023-01-15T01:30:21;93.35;;;25.77;;
46158;SDS011;31888;44.512;26.104;2023-01-15T01:32:46;93.43;;;26.65;;
46158;SDS011;31888;44.512;26.104;2023-01-15T01:35:10;91.28;;;27.92;;
46158;SDS011;31888;44.512;26.104;2023-01-15T01:37:35;107.25;;;28.35;;
46158;SDS011;31888;44.512;26.104;2023-01-15T01:40:01;106.88;;;27.65;;
46158;SDS011;31888;44.512;26.104;2023-01-15T01:42:26;105.13;;;28.17;;
46158;SDS011;31888;44.512;26.104;2023-01-15T01:44:57;116.43;;;27.48;;
46158;SDS011;31888;44.512;26.104;2023-01-15T01:47:27;93.28;;;27.00;;
46158;SDS011;31888;44.512;26.104;2023-01-15T01:49:59;99.70;;;26.65;;
46158;SDS011;31888;44.512;26.104;2023-01-15T01:52:29;107.90;;;28.65;;
46158;SDS011;31888;44.512;26.104;2023-01-15T01:55:01;97.40;;;27.80;;
46158;SDS011;31888;44.512;26.104;2023-01-15T01:57:27;104.25;;;25.80;;
46158;SDS011;31888;44.512;26.104;2023-01-15T01:59:52;99.63;;;28.50;;
46158;SDS011;31888;44.512;26.104;2023-01-15T02:02:18;115.90;;;27.67;;
46158;SDS011;31888;44.512;26.104;2023-01-15T02:04:44;98.55;;;26.55;;
46158;SDS011;31888;44.512;26.104;2023-01-15T02:07:10;125.43;;;27.73;;
46158;SDS011;31888;44.512;26.104;2023-01-15T02:09:34;112.38;;;28.92;;
46158;SDS011;31888;44.512;26.104;2023-01-15T02:12:01;120.93;;;30.33;;
46158;SDS011;31888;44.512;26.104;2023-01-15T02:14:35;110.47;;;28.80;;
46158;SDS011;31888;44.512;26.104;2023-01-15T02:17:06;119.18;;;28.00;;
46158;SDS011;31888;44.512;26.104;2023-01-15T02:19:39;113.25;;;29.08;;
46158;SDS011;31888;44.512;26.104;2023-01-15T02:22:13;115.22;;;29.52;;
46158;SDS011;31888;44.512;26.104;2023-01-15T02:24:49;99.68;;;29.08;;
46158;SDS011;31888;44.512;26.104;2023-01-15T02:27:25;128.57;;;31.70;;
46158;SDS011;31888;44.512;26.104;2023-01-15T02:29:54;125.20;;;29.25;;
46158;SDS011;31888;44.512;26.104;2023-01-15T02:32:31;113.85;;;30.30;;
46158;SDS011;31888;44.512;26.104;2023-01-15T02:35:03;115.30;;;29.02;;
46158;SDS011;31888;44.512;26.104;2023-01-15T02:37:33;119.45;;;29.73;;
46158;SDS011;31888;44.512;26.104;2023-01-15T02:40:04;114.03;;;29.48;;
46158;SDS011;31888;44.512;26.104;2023-01-15T02:42:31;115.53;;;29.02;;
46158;SDS011;31888;44.512;26.104;2023-01-15T02:45:00;114.70;;;30.08;;
46158;SDS011;31888;44.512;26.104;2023-01-15T02:47:28;115.60;;;30.65;;
46158;SDS011;31888;44.512;26.104;2023-01-15T02:50:00;114.22;;;32.80;;
46158;SDS011;31888;44.512;26.104;2023-01-15T02:52:34;129.50;;;32.60;;
46158;SDS011;31888;44.512;26.104;2023-01-15T02:55:03;111.03;;;30.42;;
46158;SDS011;31888;44.512;26.104;2023-01-15T02:57:38;119.20;;;31.27;;
46158;SDS011;31888;44.512;26.104;2023-01-15T03:00:10;103.97;;;30.10;;
46158;SDS011;31888;44.512;26.104;2023-01-15T03:02:39;121.72;;;32.42;;
46158;SDS011;31888;44.512;26.104;2023-01-15T03:05:10;108.75;;;29.92;;
46158;SDS011;31888;44.512;26.104;2023-01-15T03:07:43;111.32;;;32.38;;
46158;SDS011;31888;44.512;26.104;2023-01-15T03:10:13;112.68;;;31.48;;
46158;SDS011;31888;44.512;26.104;2023-01-15T03:12:42;110.50;;;31.50;;
46158;SDS011;31888;44.512;26.104;2023-01-15T03:15:40;107.63;;;31.88;;
46158;SDS011;31888;44.512;26.104;2023-01-15T03:18:28;99.25;;;31.38;;
46158;SDS011;31888;44.512;26.104;2023-01-15T03:20:59;99.95;;;30.00;;
46158;SDS011;31888;44.512;26.104;2023-01-15T03:23:28;100.03;;;29.85;;
46158;SDS011;31888;44.512;26.104;2023-01-15T03:25:54;85.45;;;28.77;;
46158;SDS011;31888;44.512;26.104;2023-01-15T03:28:21;98.25;;;29.77;;
46158;SDS011;31888;44.512;26.104;2023-01-15T03:30:48;96.93;;;29.27;;
46158;SDS011;31888;44.512;26.104;2023-01-15T03:33:14;78.75;;;26.77;;
46158;SDS011;31888;44.512;26.104;2023-01-15T03:35:41;87.03;;;28.77;;
46158;SDS011;31888;44.512;26.104;2023-01-15T03:38:20;92.57;;;29.55;;
46158;SDS011;31888;44.512;26.104;2023-01-15T03:40:51;91.70;;;27.20;;
46158;SDS011;31888;44.512;26.104;2023-01-15T03:43:22;83.20;;;26.85;;
46158;SDS011;31888;44.512;26.104;2023-01-15T03:46:06;76.35;;;26.30;;
46158;SDS011;31888;44.512;26.104;2023-01-15T03:48:38;80.38;;;26.75;;
46158;SDS011;31888;44.512;26.104;2023-01-15T03:51:11;76.03;;;26.42;;
46158;SDS011;31888;44.512;26.104;2023-01-15T03:53:42;95.68;;;27.80;;
46158;SDS011;31888;44.512;26.104;2023-01-15T03:56:13;74.03;;;24.75;;
46158;SDS011;31888;44.512;26.104;2023-01-15T03:58:47;72.68;;;25.10;;
46158;SDS011;31888;44.512;26.104;2023-01-15T04:01:23;81.35;;;25.27;;
46158;SDS011;31888;44.512;26.104;2023-01-15T04:03:54;76.95;;;25.02;;
46158;SDS011;31888;44.512;26.104;2023-01-15T04:06:23;79.15;;;26.90;;
46158;SDS011;31888;44.512;26.104;2023-01-15T04:08:51;78.28;;;24.55;;
46158;SDS011;31888;44.512;26.104;2023-01-15T04:11:20;70.80;;;25.13;;
46158;SDS011;31888;44.512;26.104;2023-01-15T04:13:52;70.05;;;23.75;;
46158;SDS011;31888;44.512;26.104;2023-01-15T04:16:40;64.45;;;23.13;;
46158;SDS011;31888;44.512;26.104;2023-01-15T04:19:07;68.65;;;23.17;;
46158;SDS011;31888;44.512;26.104;2023-01-15T04:21:36;65.10;;;23.35;;
46158;SDS011;31888;44.512;26.104;2023-01-15T04:24:00;59.47;;;22.10;;
46158;SDS011;31888;44.512;26.104;2023-01-15T04:26:25;62.03;;;22.55;;
46158;SDS011;31888;44.512;26.104;2023-01-15T04:28:50;63.00;;;22.77;;
46158;SDS011;31888;44.512;26.104;2023-01-15T04:31:16;64.22;;;22.20;;
46158;SDS011;31888;44.512;26.104;2023-01-15T04:33:41;67.00;;;24.08;;
46158;SDS011;31888;44.512;26.104;2023-01-15T04:36:06;59.92;;;22.17;;
46158;SDS011;31888;44.512;26.104;2023-01-15T04:38:31;59.25;;;21.65;;
46158;SDS011;31888;44.512;26.104;2023-01-15T04:40:59;57.03;;;20.50;;
46158;SDS011;31888;44.512;26.104;2023-01-15T04:43:42;67.15;;;23.30;;
46158;SDS011;31888;44.512;26.104;2023-01-15T04:46:25;74.72;;;25.52;;
46158;SDS011;31888;44.512;26.104;2023-01-15T04:48:49;66.15;;;23.77;;
46158;SDS011;31888;44.512;26.104;2023-01-15T04:51:14;68.03;;;24.42;;
46158;SDS011;31888;44.512;26.104;2023-01-15T04:53:39;67.68;;;24.13;;
46158;SDS011;31888;44.512;26.104;2023-01-15T04:56:04;66.38;;;24.23;;
46158;SDS011;31888;44.512;26.104;2023-01-15T04:58:30;65.13;;;23.40;;
46158;SDS011;31888;44.512;26.104;2023-01-15T05:00:55;69.32;;;24.42;;
46158;SDS011;31888;44.512;26.104;2023-01-15T05:03:23;70.40;;;24.75;;
46158;SDS011;31888;44.512;26.104;2023-01-15T05:05:48;77.38;;;26.48;;
46158;SDS011;31888;44.512;26.104;2023-01-15T05:08:13;69.93;;;24.98;;
46158;SDS011;31888;44.512;26.104;2023-01-15T05:10:37;74.47;;;25.52;;
46158;SDS011;31888;44.512;26.104;2023-01-15T05:13:02;71.78;;;24.90;;
46158;SDS011;31888;44.512;26.104;2023-01-15T05:15:27;71.22;;;24.50;;
46158;SDS011;31888;44.512;26.104;2023-01-15T05:17:52;84.75;;;24.95;;
46158;SDS011;31888;44.512;26.104;2023-01-15T05:20:18;81.28;;;26.88;;
46158;SDS011;31888;44.512;26.104;2023-01-15T05:22:43;68.13;;;25.73;;
46158;SDS011;31888;44.512;26.104;2023-01-15T05:25:08;74.10;;;24.80;;
46158;SDS011;31888;44.512;26.104;2023-01-15T05:27:33;66.88;;;24.42;;
46158;SDS011;31888;44.512;26.104;2023-01-15T05:29:58;72.45;;;24.20;;
46158;SDS011;31888;44.512;26.104;2023-01-15T05:32:23;71.38;;;25.33;;
46158;SDS011;31888;44.512;26.104;2023-01-15T05:34:48;74.03;;;25.92;;
46158;SDS011;31888;44.512;26.104;2023-01-15T05:37:14;70.93;;;24.75;;
46158;SDS011;31888;44.512;26.104;2023-01-15T05:39:39;72.13;;;25.05;;
46158;SDS011;31888;44.512;26.104;2023-01-15T05:42:03;70.82;;;25.55;;
46158;SDS011;31888;44.512;26.104;2023-01-15T05:44:29;71.00;;;25.48;;
46158;SDS011;31888;44.512;26.104;2023-01-15T05:46:55;68.05;;;25.92;;
46158;SDS011;31888;44.512;26.104;2023-01-15T05:49:22;75.28;;;25.02;;
46158;SDS011;31888;44.512;26.104;2023-01-15T05:51:48;70.43;;;25.70;;
46158;SDS011;31888;44.512;26.104;2023-01-15T05:54:15;68.53;;;25.90;;
46158;SDS011;31888;44.512;26.104;2023-01-15T05:56:42;72.82;;;26.25;;
46158;SDS011;31888;44.512;26.104;2023-01-15T05:59:07;65.00;;;24.20;;
46158;SDS011;31888;44.512;26.104;2023-01-15T06:01:32;70.95;;;26.33;;
46158;SDS011;31888;44.512;26.104;2023-01-15T06:03:57;71.95;;;26.27;;
46158;SDS011;31888;44.512;26.104;2023-01-15T06:06:22;71.25;;;27.52;;
46158;SDS011;31888;44.512;26.104;2023-01-15T06:08:47;71.75;;;26.77;;
46158;SDS011;31888;44.512;26.104;2023-01-15T06:11:13;77.43;;;27.20;;
46158;SDS011;31888;44.512;26.104;2023-01-15T06:13:38;72.47;;;28.15;;
46158;SDS011;31888;44.512;26.104;2023-01-15T06:16:03;68.85;;;27.90;;
46158;SDS011;31888;44.512;26.104;2023-01-15T06:18:28;68.22;;;26.33;;
46158;SDS011;31888;44.512;26.104;2023-01-15T06:20:54;71.95;;;26.42;;
46158;SDS011;31888;44.512;26.104;2023-01-15T06:23:19;72.03;;;28.10;;
46158;SDS011;31888;44.512;26.104;2023-01-15T06:25:45;73.45;;;28.25;;
46158;SDS011;31888;44.512;26.104;2023-01-15T06:28:12;69.47;;;27.98;;
46158;SDS011;31888;44.512;26.104;2023-01-15T06:30:36;72.78;;;28.48;;
46158;SDS011;31888;44.512;26.104;2023-01-15T06:33:02;70.68;;;29.13;;
46158;SDS011;31888;44.512;26.104;2023-01-15T06:35:27;74.38;;;29.13;;
46158;SDS011;31888;44.512;26.104;2023-01-15T06:37:52;72.57;;;29.42;;
46158;SDS011;31888;44.512;26.104;2023-01-15T06:40:16;77.75;;;29.42;;
46158;SDS011;31888;44.512;26.104;2023-01-15T06:42:41;71.07;;;29.02;;
46158;SDS011;31888;44.512;26.104;2023-01-15T06:45:25;81.25;;;29.23;;
46158;SDS011;31888;44.512;26.104;2023-01-15T06:48:17;75.30;;;29.23;;
46158;SDS011;31888;44.512;26.104;2023-01-15T06:50:41;82.65;;;30.40;;
46158;SDS011;31888;44.512;26.104;2023-01-15T06:53:06;77.13;;;30.17;;
46158;SDS011;31888;44.512;26.104;2023-01-15T06:55:31;70.72;;;28.35;;
46158;SDS011;31888;44.512;26.104;2023-01-15T06:57:55;73.45;;;29.80;;
46158;SDS011;31888;44.512;26.104;2023-01-15T07:00:20;79.60;;;30.05;;
46158;SDS011;31888;44.512;26.104;2023-01-15T07:02:46;77.93;;;31.30;;
46158;SDS011;31888;44.512;26.104;2023-01-15T07:05:11;78.45;;;30.38;;
46158;SDS011;31888;44.512;26.104;2023-01-15T07:07:36;82.80;;;30.92;;
46158;SDS011;31888;44.512;26.104;2023-01-15T07:10:00;75.22;;;29.58;;
46158;SDS011;31888;44.512;26.104;2023-01-15T07:12:25;84.38;;;30.92;;
46158;SDS011;31888;44.512;26.104;2023-01-15T07:14:50;77.22;;;30.77;;
46158;SDS011;31888;44.512;26.104;2023-01-15T07:17:14;83.15;;;33.65;;
46158;SDS011;31888;44.512;26.104;2023-01-15T07:19:41;74.45;;;31.20;;
46158;SDS011;31888;44.512;26.104;2023-01-15T07:22:06;70.85;;;29.88;;
46158;SDS011;31888;44.512;26.104;2023-01-15T07:24:32;78.00;;;31.50;;
46158;SDS011;31888;44.512;26.104;2023-01-15T07:26:57;75.07;;;29.73;;
46158;SDS011;31888;44.512;26.104;2023-01-15T07:29:22;68.10;;;28.63;;
46158;SDS011;31888;44.512;26.104;2023-01-15T07:31:47;71.53;;;29.30;;
46158;SDS011;31888;44.512;26.104;2023-01-15T07:34:11;73.43;;;30.80;;
46158;SDS011;31888;44.512;26.104;2023-01-15T07:36:38;73.78;;;29.80;;
46158;SDS011;31888;44.512;26.104;2023-01-15T07:39:03;69.13;;;29.52;;
46158;SDS011;31888;44.512;26.104;2023-01-15T07:41:28;74.00;;;28.88;;
46158;SDS011;31888;44.512;26.104;2023-01-15T07:44:10;83.25;;;32.05;;
46158;SDS011;31888;44.512;26.104;2023-01-15T07:46:53;72.32;;;29.70;;
46158;SDS011;31888;44.512;26.104;2023-01-15T07:49:34;75.30;;;29.73;;
46158;SDS011;31888;44.512;26.104;2023-01-15T07:52:09;75.50;;;31.15;;
46158;SDS011;31888;44.512;26.104;2023-01-15T07:54:34;80.55;;;32.17;;
46158;SDS011;31888;44.512;26.104;2023-01-15T07:56:59;84.43;;;31.38;;
46158;SDS011;31888;44.512;26.104;2023-01-15T07:59:23;84.00;;;32.33;;
46158;SDS011;31888;44.512;26.104;2023-01-15T08:01:48;74.32;;;31.23;;
46158;SDS011;31888;44.512;26.104;2023-01-15T08:04:13;78.97;;;32.85;;
46158;SDS011;31888;44.512;26.104;2023-01-15T08:06:38;84.70;;;32.95;;
46158;SDS011;31888;44.512;26.104;2023-01-15T08:09:04;80.47;;;32.22;;
46158;SDS011;31888;44.512;26.104;2023-01-15T08:11:29;84.53;;;33.05;;
46158;SDS011;31888;44.512;26.104;2023-01-15T08:14:10;79.00;;;31.23;;
46158;SDS011;31888;44.512;26.104;2023-01-15T08:16:53;81.32;;;34.55;;
46158;SDS011;31888;44.512;26.104;2023-01-15T08:19:18;84.90;;;31.80;;
46158;SDS011;31888;44.512;26.104;2023-01-15T08:21:43;79.82;;;32.60;;
46158;SDS011;31888;44.512;26.104;2023-01-15T08:24:09;92.70;;;35.45;;
46158;SDS011;31888;44.512;26.104;2023-01-15T08:26:33;87.95;;;33.83;;
46158;SDS011;31888;44.512;26.104;2023-01-15T08:28:58;84.65;;;32.60;;
46158;SDS011;31888;44.512;26.104;2023-01-15T08:31:23;84.47;;;32.88;;
46158;SDS011;31888;44.512;26.104;2023-01-15T08:33:47;85.47;;;32.25;;
46158;SDS011;31888;44.512;26.104;2023-01-15T08:36:12;86.30;;;35.08;;
46158;SDS011;31888;44.512;26.104;2023-01-15T08:38:44;85.43;;;34.97;;
46158;SDS011;31888;44.512;26.104;2023-01-15T08:41:13;84.25;;;32.33;;
46158;SDS011;31888;44.512;26.104;2023-01-15T08:43:38;87.97;;;33.53;;
46158;SDS011;31888;44.512;26.104;2023-01-15T08:46:03;87.13;;;35.13;;
46158;SDS011;31888;44.512;26.104;2023-01-15T08:48:29;82.05;;;35.00;;
46158;SDS011;31888;44.512;26.104;2023-01-15T08:50:55;79.90;;;33.13;;
46158;SDS011;31888;44.512;26.104;2023-01-15T08:53:19;82.38;;;33.72;;
46158;SDS011;31888;44.512;26.104;2023-01-15T08:55:45;81.85;;;33.45;;
46158;SDS011;31888;44.512;26.104;2023-01-15T08:58:12;83.07;;;34.20;;
46158;SDS011;31888;44.512;26.104;2023-01-15T09:00:38;88.55;;;35.58;;
46158;SDS011;31888;44.512;26.104;2023-01-15T09:03:03;85.10;;;35.22;;
46158;SDS011;31888;44.512;26.104;2023-01-15T09:05:28;86.63;;;36.35;;
46158;SDS011;31888;44.512;26.104;2023-01-15T09:07:53;74.72;;;33.22;;
46158;SDS011;31888;44.512;26.104;2023-01-15T09:10:17;86.63;;;37.33;;
46158;SDS011;31888;44.512;26.104;2023-01-15T09:12:43;74.60;;;33.67;;
46158;SDS011;31888;44.512;26.104;2023-01-15T09:15:10;75.97;;;33.13;;
46158;SDS011;31888;44.512;26.104;2023-01-15T09:17:35;68.32;;;30.77;;
46158;SDS011;31888;44.512;26.104;2023-01-15T09:20:02;72.13;;;33.05;;
46158;SDS011;31888;44.512;26.104;2023-01-15T09:22:27;72.47;;;32.03;;
46158;SDS011;31888;44.512;26.104;2023-01-15T09:24:55;73.55;;;33.47;;
46158;SDS011;31888;44.512;26.104;2023-01-15T09:27:20;72.82;;;32.30;;
46158;SDS011;31888;44.512;26.104;2023-01-15T09:29:45;72.97;;;32.72;;
46158;SDS011;31888;44.512;26.104;2023-01-15T09:32:11;66.28;;;31.02;;
46158;SDS011;31888;44.512;26.104;2023-01-15T09:34:36;70.13;;;30.13;;
46158;SDS011;31888;44.512;26.104;2023-01-15T09:37:00;72.13;;;32.28;;
46158;SDS011;31888;44.512;26.104;2023-01-15T09:39:25;73.47;;;31.88;;
46158;SDS011;31888;44.512;26.104;2023-01-15T09:41:58;70.80;;;31.55;;
46158;SDS011;31888;44.512;26.104;2023-01-15T09:44:40;68.10;;;30.20;;
46158;SDS011;31888;44.512;26.104;2023-01-15T09:47:17;66.65;;;29.15;;
46158;SDS011;31888;44.512;26.104;2023-01-15T09:49:49;65.78;;;29.45;;
46158;SDS011;31888;44.512;26.104;2023-01-15T09:52:23;57.08;;;27.58;;
46158;SDS011;31888;44.512;26.104;2023-01-15T09:54:56;59.72;;;27.05;;
46158;SDS011;31888;44.512;26.104;2023-01-15T09:57:26;59.25;;;27.77;;
46158;SDS011;31888;44.512;26.104;2023-01-15T09:59:52;65.75;;;29.25;;
46158;SDS011;31888;44.512;26.104;2023-01-15T10:02:37;61.00;;;27.13;;
46158;SDS011;31888;44.512;26.104;2023-01-15T10:05:08;58.03;;;28.23;;
46158;SDS011;31888;44.512;26.104;2023-01-15T10:07:40;57.95;;;27.48;;
46158;SDS011;31888;44.512;26.104;2023-01-15T10:10:14;64.10;;;27.38;;
46158;SDS011;31888;44.512;26.104;2023-01-15T10:12:43;55.35;;;26.90;;
46158;SDS011;31888;44.512;26.104;2023-01-15T10:15:27;48.97;;;23.35;;
46158;SDS011;31888;44.512;26.104;2023-01-15T10:18:00;45.45;;;22.33;;
46158;SDS011;31888;44.512;26.104;2023-01-15T10:23:33;45.58;;;22.20;;
46158;SDS011;31888;44.512;26.104;2023-01-15T10:26:02;47.60;;;22.45;;
46158;SDS011;31888;44.512;26.104;2023-01-15T10:28:44;44.40;;;21.58;;
46158;SDS011;31888;44.512;26.104;2023-01-15T10:31:39;45.53;;;21.48;;
46158;SDS011;31888;44.512;26.104;2023-01-15T10:36:53;43.97;;;21.85;;
46158;SDS011;31888;44.512;26.104;2023-01-15T10:39:23;44.15;;;21.38;;
46158;SDS011;31888;44.512;26.104;2023-01-15T10:41:56;46.28;;;21.05;;
46158;SDS011;31888;44.512;26.104;2023-01-15T10:44:36;45.58;;;21.67;;
46158;SDS011;31888;44.512;26.104;2023-01-15T10:47:10;41.33;;;19.92;;
46158;SDS011;31888;44.512;26.104;2023-01-15T10:49:37;44.05;;;20.80;;
46158;SDS011;31888;44.512;26.104;2023-01-15T10:52:06;44.63;;;21.35;;
46158;SDS011;31888;44.512;26.104;2023-01-15T10:54:41;43.28;;;20.95;;
46158;SDS011;31888;44.512;26.104;2023-01-15T10:57:11;41.75;;;19.58;;
46158;SDS011;31888;44.512;26.104;2023-01-15T10:59:43;41.15;;;19.23;;
46158;SDS011;31888;44.512;26.104;2023-01-15T11:02:14;35.03;;;16.25;;
46158;SDS011;31888;44.512;26.104;2023-01-15T11:04:47;36.20;;;17.20;;
46158;SDS011;31888;44.512;26.104;2023-01-15T11:07:13;38.78;;;17.35;;
46158;SDS011;31888;44.512;26.104;2023-01-15T11:09:40;36.83;;;18.08;;
46158;SDS011;31888;44.512;26.104;2023-01-15T11:12:11;34.63;;;17.20;;
46158;SDS011;31888;44.512;26.104;2023-01-15T11:15:01;37.35;;;18.63;;
46158;SDS011;31888;44.512;26.104;2023-01-15T11:17:54;37.25;;;17.75;;
46158;SDS011;31888;44.512;26.104;2023-01-15T11:20:42;34.53;;;16.70;;
46158;SDS011;31888;44.512;26.104;2023-01-15T11:23:10;36.33;;;17.33;;
46158;SDS011;31888;44.512;26.104;2023-01-15T11:25:36;34.42;;;17.42;;
46158;SDS011;31888;44.512;26.104;2023-01-15T11:28:06;34.80;;;17.42;;
46158;SDS011;31888;44.512;26.104;2023-01-15T11:30:32;32.38;;;16.83;;
46158;SDS011;31888;44.512;26.104;2023-01-15T11:32:59;37.08;;;18.92;;
46158;SDS011;31888;44.512;26.104;2023-01-15T11:35:26;35.45;;;17.73;;
46158;SDS011;31888;44.512;26.104;2023-01-15T11:38:00;38.85;;;18.65;;
46158;SDS011;31888;44.512;26.104;2023-01-15T11:40:30;38.50;;;17.63;;
46158;SDS011;31888;44.512;26.104;2023-01-15T11:42:54;40.13;;;18.48;;
46158;SDS011;31888;44.512;26.104;2023-01-15T11:45:44;40.03;;;18.65;;
46158;SDS011;31888;44.512;26.104;2023-01-15T11:48:27;45.00;;;19.98;;
46158;SDS011;31888;44.512;26.104;2023-01-15T11:51:10;38.17;;;18.45;;
46158;SDS011;31888;44.512;26.104;2023-01-15T11:53:38;38.75;;;18.35;;
46158;SDS011;31888;44.512;26.104;2023-01-15T11:56:08;38.72;;;18.48;;
46158;SDS011;31888;44.512;26.104;2023-01-15T11:58:38;41.42;;;18.83;;
46158;SDS011;31888;44.512;26.104;2023-01-15T12:01:06;40.55;;;18.45;;
46158;SDS011;31888;44.512;26.104;2023-01-15T12:03:31;34.80;;;16.52;;
46158;SDS011;31888;44.512;26.104;2023-01-15T12:06:00;38.25;;;17.95;;
46158;SDS011;31888;44.512;26.104;2023-01-15T12:08:40;38.58;;;17.63;;
46158;SDS011;31888;44.512;26.104;2023-01-15T12:11:15;41.58;;;19.70;;
46158;SDS011;31888;44.512;26.104;2023-01-15T12:14:01;42.25;;;18.95;;
46158;SDS011;31888;44.512;26.104;2023-01-15T12:16:40;46.08;;;19.15;;
46158;SDS011;31888;44.512;26.104;2023-01-15T12:19:11;41.10;;;18.85;;
46158;SDS011;31888;44.512;26.104;2023-01-15T12:21:50;39.50;;;18.42;;
46158;SDS011;31888;44.512;26.104;2023-01-15T12:24:28;36.63;;;16.88;;
46158;SDS011;31888;44.512;26.104;2023-01-15T12:27:29;36.00;;;16.83;;
46158;SDS011;31888;44.512;26.104;2023-01-15T12:30:17;38.85;;;17.00;;
46158;SDS011;31888;44.512;26.104;2023-01-15T12:32:49;40.35;;;17.45;;
46158;SDS011;31888;44.512;26.104;2023-01-15T12:35:31;39.20;;;18.27;;
46158;SDS011;31888;44.512;26.104;2023-01-15T12:38:02;37.70;;;17.67;;
46158;SDS011;31888;44.512;26.104;2023-01-15T12:40:36;36.13;;;16.35;;
46158;SDS011;31888;44.512;26.104;2023-01-15T12:43:11;33.75;;;16.15;;
46158;SDS011;31888;44.512;26.104;2023-01-15T12:45:56;36.33;;;17.60;;
46158;SDS011;31888;44.512;26.104;2023-01-15T12:48:26;36.40;;;16.60;;
46158;SDS011;31888;44.512;26.104;2023-01-15T12:50:58;35.38;;;16.33;;
46158;SDS011;31888;44.512;26.104;2023-01-15T12:53:26;36.58;;;17.88;;
46158;SDS011;31888;44.512;26.104;2023-01-15T12:55:57;37.17;;;17.23;;
46158;SDS011;31888;44.512;26.104;2023-01-15T12:58:30;38.92;;;17.38;;
46158;SDS011;31888;44.512;26.104;2023-01-15T13:01:02;33.85;;;16.55;;
46158;SDS011;31888;44.512;26.104;2023-01-15T13:03:37;35.22;;;16.58;;
46158;SDS011;31888;44.512;26.104;2023-01-15T13:06:11;42.03;;;18.38;;
46158;SDS011;31888;44.512;26.104;2023-01-15T13:08:39;43.35;;;18.45;;
46158;SDS011;31888;44.512;26.104;2023-01-15T13:11:14;40.28;;;18.02;;
46158;SDS011;31888;44.512;26.104;2023-01-15T13:13:40;34.03;;;16.15;;
46158;SDS011;31888;44.512;26.104;2023-01-15T13:16:20;35.88;;;15.07;;
46158;SDS011;31888;44.512;26.104;2023-01-15T13:18:53;41.05;;;16.05;;
46158;SDS011;31888;44.512;26.104;2023-01-15T13:21:34;28.90;;;14.70;;
46158;SDS011;31888;44.512;26.104;2023-01-15T13:24:10;29.48;;;14.15;;
46158;SDS011;31888;44.512;26.104;2023-01-15T13:27:06;28.38;;;14.45;;
46158;SDS011;31888;44.512;26.104;2023-01-15T13:29:46;37.22;;;16.17;;
46158;SDS011;31888;44.512;26.104;2023-01-15T13:32:18;33.22;;;14.80;;
46158;SDS011;31888;44.512;26.104;2023-01-15T13:34:46;28.35;;;14.43;;
46158;SDS011;31888;44.512;26.104;2023-01-15T13:37:23;31.38;;;15.02;;
46158;SDS011;31888;44.512;26.104;2023-01-15T13:39:55;28.95;;;13.07;;
46158;SDS011;31888;44.512;26.104;2023-01-15T13:42:25;26.85;;;13.30;;
46158;SDS011;31888;44.512;26.104;2023-01-15T13:45:02;31.90;;;15.23;;
46158;SDS011;31888;44.512;26.104;2023-01-15T13:47:44;25.48;;;13.50;;
46158;SDS011;31888;44.512;26.104;2023-01-15T13:50:12;24.25;;;13.15;;
46158;SDS011;31888;44.512;26.104;2023-01-15T13:52:40;23.95;;;12.32;;
46158;SDS011;31888;44.512;26.104;2023-01-15T13:55:09;21.38;;;11.82;;
46158;SDS011;31888;44.512;26.104;2023-01-15T13:57:40;22.08;;;11.80;;
46158;SDS011;31888;44.512;26.104;2023-01-15T14:00:24;23.15;;;12.75;;
46158;SDS011;31888;44.512;26.104;2023-01-15T14:02:52;21.35;;;11.55;;
46158;SDS011;31888;44.512;26.104;2023-01-15T14:05:23;31.88;;;14.10;;
46158;SDS011;31888;44.512;26.104;2023-01-15T14:07:51;24.23;;;12.52;;
46158;SDS011;31888;44.512;26.104;2023-01-15T14:10:22;25.92;;;12.73;;
46158;SDS011;31888;44.512;26.104;2023-01-15T14:12:58;22.38;;;11.93;;
46158;SDS011;31888;44.512;26.104;2023-01-15T14:15:46;24.70;;;12.13;;
46158;SDS011;31888;44.512;26.104;2023-01-15T14:18:19;23.60;;;12.38;;
46158;SDS011;31888;44.512;26.104;2023-01-15T14:21:01;23.30;;;12.75;;
46158;SDS011;31888;44.512;26.104;2023-01-15T14:23:50;26.35;;;12.73;;
46158;SDS011;31888;44.512;26.104;2023-01-15T14:26:39;27.77;;;13.13;;
46158;SDS011;31888;44.512;26.104;2023-01-15T14:29:24;26.08;;;13.50;;